Time;durP1;ratioP1;P1;durP2;ratioP2;P2;SDS_P1;SDS_P2;PMS_P1;PMS_P2;Temp;Humidity;BMP_temperature;BMP_pressure;BME280_temperature;BME280_humidity;BME280_pressure;Samples;Min_cycle;Max_cycle;Signal;HPM_P1;HPM_P2
2022/06/06 00:01:58;;;;;;;2.58;2.38;;;17.50;99.90;;;;;;5072889;28;20188;-65
2022/06/06 00:04:27;;;;;;;2.97;2.70;;;17.30;99.90;;;;;;5072535;28;20177;-64
2022/06/06 00:06:54;;;;;;;4.18;3.28;;;17.00;99.90;;;;;;5072840;28;20172;-65
2022/06/06 00:09:19;;;;;;;4.22;3.00;;;16.90;99.90;;;;;;5072092;28;20181;-66
2022/06/06 00:11:45;;;;;;;4.75;3.10;;;16.80;99.90;;;;;;5072907;28;20176;-66
2022/06/06 00:14:13;;;;;;;4.00;2.97;;;16.70;99.90;;;;;;5072513;28;20200;-66
2022/06/06 00:16:38;;;;;;;3.45;2.85;;;16.70;99.90;;;;;;5072580;28;20185;-65
2022/06/06 00:19:05;;;;;;;5.80;3.30;;;16.60;99.90;;;;;;5072361;28;20707;-65
2022/06/06 00:21:31;;;;;;;3.78;3.30;;;16.50;99.90;;;;;;5071533;28;20189;-66
2022/06/06 00:23:59;;;;;;;3.63;3.30;;;16.50;99.90;;;;;;5065896;28;20181;-65
2022/06/06 00:26:26;;;;;;;5.38;3.65;;;16.50;99.90;;;;;;5062480;28;20173;-65
2022/06/06 00:28:51;;;;;;;5.82;4.00;;;16.50;99.90;;;;;;5072600;28;20537;-65
2022/06/06 00:36:45;;;;;;;3.83;3.47;;;16.50;99.90;;;;;;5072573;28;20207;-65
2022/06/06 00:39:14;;;;;;;4.63;3.70;;;16.50;99.90;;;;;;5071975;28;20636;-66
2022/06/06 00:41:49;;;;;;;4.88;3.97;;;16.60;99.90;;;;;;5072257;28;20195;-65
2022/06/06 00:44:34;;;;;;;5.30;3.63;;;16.60;99.90;;;;;;5071733;28;20181;-66
2022/06/06 00:47:13;;;;;;;9.18;6.40;;;16.60;99.90;;;;;;5070932;28;20181;-64
2022/06/06 00:49:47;;;;;;;42.83;27.13;;;16.70;99.90;;;;;;5071635;28;20669;-64
2022/06/06 00:52:18;;;;;;;9.52;6.55;;;16.90;99.90;;;;;;5070301;28;20182;-64
2022/06/06 00:54:47;;;;;;;19.08;13.20;;;17.10;99.90;;;;;;5067023;28;20612;-64
2022/06/06 00:57:17;;;;;;;16.67;11.75;;;17.30;99.90;;;;;;5056978;28;20208;-64
2022/06/06 00:59:44;;;;;;;15.15;9.65;;;17.60;99.90;;;;;;5071781;28;20179;-65
2022/06/06 01:02:11;;;;;;;7.22;5.47;;;17.80;99.90;;;;;;5071261;28;20666;-65
2022/06/06 01:04:39;;;;;;;8.77;5.82;;;18.00;99.90;;;;;;5070898;28;20180;-65
2022/06/06 01:07:05;;;;;;;5.10;4.07;;;18.20;99.90;;;;;;5061357;28;20204;-65
2022/06/06 01:09:31;;;;;;;4.13;3.25;;;18.30;99.90;;;;;;5071480;28;20181;-65
2022/06/06 01:12:00;;;;;;;6.60;3.78;;;18.30;99.90;;;;;;5071135;28;20535;-65
2022/06/06 01:14:31;;;;;;;4.78;3.58;;;18.40;99.90;;;;;;5070227;28;20413;-65
2022/06/06 01:17:04;;;;;;;6.72;3.88;;;18.50;99.90;;;;;;5071083;28;20185;-65
2022/06/06 01:19:51;;;;;;;4.28;3.08;;;18.50;99.90;;;;;;5070635;28;20236;-65
2022/06/06 01:22:51;;;;;;;4.05;3.03;;;18.50;99.90;;;;;;5071077;28;20177;-64
2022/06/06 01:25:53;;;;;;;5.38;3.10;;;18.50;99.90;;;;;;5058381;28;20189;-64
2022/06/06 01:28:53;;;;;;;3.00;2.70;;;18.50;99.90;;;;;;5071367;28;20181;-64
2022/06/06 01:31:58;;;;;;;4.63;3.17;;;18.50;99.90;;;;;;5071135;28;20223;-64
2022/06/06 01:34:28;;;;;;;3.90;2.88;;;18.50;99.90;;;;;;5070962;28;20617;-64
2022/06/06 01:36:56;;;;;;;4.07;3.33;;;18.50;99.90;;;;;;5070886;28;20230;-64
2022/06/06 01:39:24;;;;;;;3.60;2.80;;;18.60;99.90;;;;;;5071116;28;20177;-64
2022/06/06 01:42:11;;;;;;;3.17;2.88;;;18.50;99.90;;;;;;5071344;28;20172;-65
2022/06/06 01:45:00;;;;;;;3.83;3.05;;;18.50;99.90;;;;;;5071353;28;20259;-64
2022/06/06 01:47:42;;;;;;;5.35;3.20;;;18.50;99.90;;;;;;5070030;28;20184;-64
2022/06/06 01:50:09;;;;;;;4.20;2.95;;;18.40;99.90;;;;;;5071329;28;20667;-65
2022/06/06 01:53:02;;;;;;;7.72;3.22;;;18.40;99.90;;;;;;5071700;28;20195;-65
2022/06/06 01:55:30;;;;;;;3.50;3.20;;;18.30;99.90;;;;;;5070774;28;20570;-65
2022/06/06 01:58:01;;;;;;;3.78;2.92;;;18.30;99.90;;;;;;5071226;28;20181;-65
2022/06/06 02:00:28;;;;;;;2.88;2.67;;;18.30;99.90;;;;;;5071161;28;20183;-65
2022/06/06 02:02:53;;;;;;;4.45;3.22;;;18.30;99.90;;;;;;5071061;28;20539;-65
2022/06/06 02:05:20;;;;;;;3.50;3.20;;;18.30;99.90;;;;;;5071509;28;20175;-65
2022/06/06 02:07:46;;;;;;;3.58;2.75;;;18.30;99.90;;;;;;5071483;28;20578;-65
2022/06/06 02:10:14;;;;;;;4.93;3.17;;;18.30;99.90;;;;;;5071071;28;20183;-65
2022/06/06 02:12:41;;;;;;;5.80;3.15;;;18.20;99.90;;;;;;5070748;28;20250;-65
2022/06/06 02:15:09;;;;;;;4.10;2.92;;;18.20;99.90;;;;;;5069998;28;20718;-65
2022/06/06 02:17:35;;;;;;;6.28;3.35;;;18.10;99.90;;;;;;5068589;28;20578;-66
2022/06/06 02:20:04;;;;;;;5.28;3.00;;;18.10;99.90;;;;;;5070648;28;20270;-66
2022/06/06 02:22:30;;;;;;;5.90;3.17;;;17.80;99.90;;;;;;5070441;28;20188;-66
2022/06/06 02:24:55;;;;;;;4.07;3.17;;;17.60;99.90;;;;;;5070277;28;20181;-66
2022/06/06 02:27:21;;;;;;;4.53;3.53;;;17.40;99.90;;;;;;5070243;28;20196;-66
2022/06/06 02:29:46;;;;;;;4.50;3.47;;;17.20;99.90;;;;;;5068828;28;20180;-66
2022/06/06 02:32:12;;;;;;;7.47;3.80;;;16.90;99.90;;;;;;5072220;28;20172;-66
2022/06/06 02:34:38;;;;;;;4.28;3.63;;;16.80;99.90;;;;;;5074243;28;20619;-66
2022/06/06 02:37:04;;;;;;;4.28;3.80;;;16.60;99.90;;;;;;5073770;28;20695;-66
2022/06/06 02:39:30;;;;;;;5.20;3.95;;;16.50;99.90;;;;;;5074068;28;20187;-66
2022/06/06 02:41:56;;;;;;;4.90;4.18;;;16.30;99.90;;;;;;5074206;28;20173;-65
2022/06/06 02:44:23;;;;;;;6.15;4.05;;;16.20;99.90;;;;;;5073905;28;20255;-66
2022/06/06 02:46:49;;;;;;;5.93;4.47;;;16.20;99.90;;;;;;5073845;28;20639;-66
2022/06/06 02:49:15;;;;;;;6.85;4.32;;;16.10;99.90;;;;;;5073826;28;21669;-66
2022/06/06 02:51:41;;;;;;;6.65;4.68;;;16.10;99.90;;;;;;5073904;28;20188;-66
2022/06/06 02:54:07;;;;;;;7.47;4.55;;;16.10;99.90;;;;;;5071925;28;20723;-66
2022/06/06 02:56:33;;;;;;;6.45;4.32;;;16.00;99.90;;;;;;5073279;28;20196;-66
2022/06/06 02:59:03;;;;;;;4.93;4.43;;;16.00;99.90;;;;;;5073525;28;20683;-66
2022/06/06 03:01:29;;;;;;;6.00;4.38;;;15.90;99.90;;;;;;5073404;28;20184;-66
2022/06/06 03:03:55;;;;;;;4.53;3.58;;;15.90;99.90;;;;;;5071215;28;20177;-66
2022/06/06 03:06:50;;;;;;;8.13;4.63;;;15.90;99.90;;;;;;5073771;28;20187;-66
2022/06/06 03:09:35;;;;;;;4.53;4.13;;;15.90;99.90;;;;;;5072450;28;20306;-66
2022/06/06 03:12:29;;;;;;;6.18;4.50;;;15.80;99.90;;;;;;5072917;28;20517;-66
2022/06/06 03:15:13;;;;;;;6.18;4.00;;;15.80;99.90;;;;;;5066636;28;20221;-67
2022/06/06 03:21:15;;;;;;;5.75;4.32;;;15.70;99.90;;;;;;5073489;28;20295;-67
2022/06/06 03:24:02;;;;;;;5.53;4.25;;;15.60;99.90;;;;;;5071541;28;20226;-66
2022/06/06 03:26:49;;;;;;;6.25;4.43;;;15.60;99.90;;;;;;5072872;28;20208;-66
2022/06/06 03:29:55;;;;;;;5.82;4.15;;;15.60;99.90;;;;;;5073092;28;20638;-66
2022/06/06 03:32:44;;;;;;;6.90;3.65;;;15.60;99.90;;;;;;5068342;28;20188;-66
2022/06/06 03:35:34;;;;;;;5.50;4.60;;;15.70;99.90;;;;;;5068275;28;20204;-66
2022/06/06 03:38:10;;;;;;;8.57;4.88;;;15.70;99.90;;;;;;5072809;28;20286;-66
2022/06/06 03:40:55;;;;;;;5.10;4.18;;;15.70;99.90;;;;;;5072794;28;20234;-66
2022/06/06 03:43:51;;;;;;;5.50;4.60;;;15.70;99.90;;;;;;5072613;28;20177;-66
2022/06/06 03:46:32;;;;;;;5.60;4.50;;;15.70;99.90;;;;;;5072946;28;20184;-66
2022/06/06 03:49:07;;;;;;;7.55;4.18;;;15.70;99.90;;;;;;5073078;28;20267;-66
2022/06/06 03:51:59;;;;;;;5.68;4.07;;;15.70;99.90;;;;;;5071447;28;20218;-67
2022/06/06 03:54:47;;;;;;;5.10;4.40;;;15.80;99.90;;;;;;5068243;28;20258;-66
2022/06/06 03:57:19;;;;;;;5.43;4.72;;;15.80;99.90;;;;;;5072820;28;20177;-66
2022/06/06 03:59:47;;;;;;;7.32;4.20;;;15.80;99.90;;;;;;5072813;28;20184;-66
2022/06/06 04:02:19;;;;;;;5.70;4.40;;;15.90;99.90;;;;;;5072018;28;20184;-67
2022/06/06 04:04:46;;;;;;;4.90;4.40;;;15.90;99.90;;;;;;5072625;28;20195;-66
2022/06/06 04:07:12;;;;;;;7.53;4.32;;;16.00;99.90;;;;;;5072592;28;20211;-66
2022/06/06 04:09:37;;;;;;;5.35;4.32;;;16.10;99.90;;;;;;5071484;28;20220;-66
2022/06/06 04:12:24;;;;;;;5.13;4.30;;;16.20;99.90;;;;;;5072235;28;20262;-66
2022/06/06 04:15:04;;;;;;;5.15;4.22;;;16.30;99.90;;;;;;5072314;28;20703;-67
2022/06/06 04:17:36;;;;;;;5.05;4.10;;;16.40;99.90;;;;;;5068212;28;20215;-67
2022/06/06 04:20:30;;;;;;;5.10;4.00;;;16.60;99.90;;;;;;5073153;28;20228;-67
2022/06/06 04:23:45;;;;;;;10.13;4.05;;;16.80;99.90;;;;;;5057844;28;20669;-67
2022/06/06 04:26:38;;;;;;;5.72;3.80;;;17.30;99.90;;;;;;5064856;28;20261;-66
2022/06/06 04:29:12;;;;;;;3.65;3.33;;;17.70;99.90;;;;;;5058341;28;20272;-67
2022/06/06 04:32:01;;;;;;;3.78;3.17;;;18.10;99.90;;;;;;5071036;28;20182;-66
2022/06/06 04:34:38;;;;;;;6.43;3.65;;;18.50;99.90;;;;;;5066905;28;20224;-66
2022/06/06 04:37:16;;;;;;;3.90;3.50;;;18.80;99.90;;;;;;5071872;28;20198;-65
2022/06/06 04:39:59;;;;;;;3.83;3.10;;;18.90;99.90;;;;;;5069991;28;20188;-64
2022/06/06 04:42:42;;;;;;;3.53;3.20;;;19.10;99.90;;;;;;5069638;28;20548;-64
2022/06/06 04:45:32;;;;;;;3.65;3.35;;;19.40;99.90;;;;;;5071582;28;20623;-65
2022/06/06 04:47:59;;;;;;;4.63;3.03;;;19.70;99.90;;;;;;5071901;28;20185;-65
2022/06/06 04:50:25;;;;;;;3.83;3.22;;;19.90;99.90;;;;;;5055875;28;20176;-64
2022/06/06 04:52:59;;;;;;;3.28;2.92;;;20.00;99.90;;;;;;5071726;28;20234;-65
2022/06/06 04:55:26;;;;;;;4.43;3.13;;;20.20;99.90;;;;;;5070686;28;20216;-62
2022/06/06 04:57:55;;;;;;;5.35;3.05;;;20.40;99.90;;;;;;5071744;28;20177;-63
2022/06/06 05:00:21;;;;;;;8.40;3.03;;;20.50;99.90;;;;;;5071712;28;20662;-62
2022/06/06 05:02:46;;;;;;;5.25;2.75;;;20.60;99.90;;;;;;5071341;28;20211;-66
2022/06/06 05:05:12;;;;;;;3.75;2.95;;;20.80;99.90;;;;;;5071923;28;20195;-67
2022/06/06 05:07:48;;;;;;;6.53;2.97;;;21.10;99.90;;;;;;5046362;28;20169;-65
2022/06/06 05:10:22;;;;;;;3.40;3.03;;;21.00;99.90;;;;;;5064539;28;20219;-65
2022/06/06 05:12:56;;;;;;;6.70;3.17;;;20.80;99.90;;;;;;5072141;28;20169;-67
2022/06/06 05:16:11;;;;;;;3.30;2.90;;;20.60;99.90;;;;;;5071368;28;20288;-67
2022/06/06 05:19:01;;;;;;;4.57;2.90;;;20.70;99.90;;;;;;5066804;28;20714;-69
2022/06/06 05:22:02;;;;;;;4.55;2.90;;;20.90;99.90;;;;;;5066296;28;20219;-66
2022/06/06 05:24:52;;;;;;;3.63;2.97;;;21.20;99.90;;;;;;5071146;28;20647;-67
2022/06/06 05:27:33;;;;;;;4.65;3.42;;;21.40;99.90;;;;;;5071081;28;20188;-67
2022/06/06 05:30:20;;;;;;;4.90;2.97;;;21.60;99.90;;;;;;5070955;28;20268;-66
2022/06/06 05:33:01;;;;;;;3.33;2.70;;;21.80;99.90;;;;;;5068941;28;20188;-66
2022/06/06 05:35:53;;;;;;;3.67;3.10;;;21.90;99.90;;;;;;5071227;28;20229;-68
2022/06/06 05:38:32;;;;;;;4.13;3.30;;;22.20;99.90;;;;;;5063959;28;20195;-66
2022/06/06 05:41:18;;;;;;;2.97;2.70;;;22.30;99.90;;;;;;5071290;28;20663;-65
2022/06/06 05:44:01;;;;;;;3.65;2.80;;;22.20;99.90;;;;;;5051673;28;20185;-66
2022/06/06 05:46:34;;;;;;;4.53;3.17;;;22.00;99.90;;;;;;5066512;28;20185;-65
2022/06/06 05:49:38;;;;;;;3.22;2.90;;;21.80;99.90;;;;;;5071087;28;20609;-64
2022/06/06 05:52:31;;;;;;;3.25;2.50;;;21.80;99.90;;;;;;5055618;28;20169;-64
2022/06/06 05:55:21;;;;;;;3.95;2.80;;;21.90;99.90;;;;;;5069025;28;20223;-65
2022/06/06 05:58:13;;;;;;;4.05;3.03;;;22.00;99.90;;;;;;5070083;28;20934;-66
2022/06/06 06:01:15;;;;;;;5.30;3.00;;;22.30;99.90;;;;;;5071378;28;20184;-67
2022/06/06 06:04:00;;;;;;;3.17;2.88;;;22.30;99.90;;;;;;5071394;28;20234;-66
2022/06/06 06:06:37;;;;;;;2.95;2.63;;;22.60;99.90;;;;;;5073556;28;20173;-66
2022/06/06 06:09:14;;;;;;;5.55;2.88;;;22.30;99.90;;;;;;5074269;28;20188;-66
2022/06/06 06:12:15;;;;;;;4.38;2.75;;;22.00;99.90;;;;;;5075557;28;20263;-66
2022/06/06 06:14:51;;;;;;;3.50;2.80;;;21.70;99.90;;;;;;5075443;28;20208;-66
2022/06/06 06:17:21;;;;;;;6.43;3.38;;;21.30;99.90;;;;;;5063005;28;20227;-67
2022/06/06 06:19:55;;;;;;;4.13;3.05;;;21.00;99.90;;;;;;5054394;28;20229;-67
2022/06/06 06:22:21;;;;;;;3.47;3.08;;;20.60;99.90;;;;;;5061401;28;20237;-65
2022/06/06 06:24:49;;;;;;;4.53;3.47;;;20.30;99.90;;;;;;5073729;28;20680;-66
2022/06/06 06:27:17;;;;;;;4.53;3.20;;;20.00;99.90;;;;;;5075021;28;20164;-66
2022/06/06 06:29:42;;;;;;;4.30;3.38;;;19.80;99.90;;;;;;5075010;28;20176;-67
2022/06/06 06:32:23;;;;;;;5.40;3.22;;;19.70;99.90;;;;;;5074780;28;20183;-67
2022/06/06 06:34:52;;;;;;;4.63;3.20;;;19.60;99.90;;;;;;5074775;28;20209;-67
2022/06/06 06:37:55;;;;;;;6.88;3.42;;;19.50;99.90;;;;;;5074753;28;20195;-66
2022/06/06 06:40:20;;;;;;;5.25;3.50;;;19.50;99.90;;;;;;5074712;28;20220;-66
2022/06/06 06:43:04;;;;;;;3.60;3.20;;;19.40;99.90;;;;;;5074854;28;20175;-67
2022/06/06 06:45:36;;;;;;;5.68;3.88;;;19.40;99.90;;;;;;5074899;28;20241;-67
2022/06/06 06:48:10;;;;;;;7.07;3.88;;;19.30;99.90;;;;;;5069820;28;20192;-66
2022/06/06 06:50:44;;;;;;;4.80;3.75;;;19.30;99.90;;;;;;5074549;28;20192;-66
2022/06/06 06:53:29;;;;;;;5.35;3.83;;;19.20;99.90;;;;;;5074131;28;20177;-65
2022/06/06 06:56:00;;;;;;;4.45;3.75;;;19.20;99.90;;;;;;5074408;28;20211;-66
2022/06/06 06:59:08;;;;;;;4.65;3.75;;;19.10;99.90;;;;;;5074535;28;20177;-66
2022/06/06 07:11:04;;;;;;;6.85;4.82;;;19.40;99.90;;;;;;5054325;28;20545;-66
2022/06/06 07:13:57;;;;;;;11.63;4.70;;;19.60;99.90;;;;;;5054070;28;20670;-66
2022/06/06 07:16:26;;;;;;;4.68;3.70;;;19.80;99.90;;;;;;5058958;28;20242;-65
2022/06/06 07:19:17;;;;;;;3.63;3.33;;;20.10;99.90;;;;;;5072885;28;20255;-65
2022/06/06 07:21:45;;;;;;;4.30;3.55;;;20.10;99.90;;;;;;5063862;28;20189;-66
2022/06/06 07:24:15;;;;;;;5.53;3.45;;;20.20;99.90;;;;;;5073300;28;20370;-65
2022/06/06 07:26:42;;;;;;;4.70;3.03;;;20.40;99.90;;;;;;5073375;28;20202;-66
2022/06/06 07:29:10;;;;;;;4.78;3.05;;;20.50;99.90;;;;;;5072758;28;20394;-65
2022/06/06 07:31:39;;;;;;;4.60;3.10;;;20.60;99.90;;;;;;5073015;28;20205;-65
2022/06/06 07:34:29;;;;;;;3.42;3.10;;;20.90;99.90;;;;;;5073084;28;20181;-65
2022/06/06 07:37:07;;;;;;;3.70;3.05;;;21.00;99.90;;;;;;5073232;28;20195;-65
2022/06/06 07:40:00;;;;;;;4.82;3.05;;;21.20;99.90;;;;;;5073275;28;20176;-65
2022/06/06 07:42:49;;;;;;;5.05;3.30;;;21.10;99.90;;;;;;5073289;28;20184;-64
2022/06/06 07:45:43;;;;;;;3.50;3.20;;;20.90;99.90;;;;;;5055778;28;20185;-65
2022/06/06 07:48:36;;;;;;;3.33;3.03;;;20.60;99.90;;;;;;5053346;28;20268;-65
2022/06/06 07:51:30;;;;;;;4.00;3.60;;;20.40;99.90;;;;;;5072746;28;20620;-64
2022/06/06 07:54:07;;;;;;;5.35;3.53;;;20.40;99.90;;;;;;5073093;28;20180;-65
2022/06/06 07:56:44;;;;;;;7.70;2.95;;;20.30;99.90;;;;;;5073216;28;20180;-64
2022/06/06 07:59:32;;;;;;;3.42;2.80;;;20.30;99.90;;;;;;5072999;28;20684;-64
2022/06/06 08:02:31;;;;;;;7.65;3.85;;;20.40;99.90;;;;;;5073071;28;20176;-65
2022/06/06 08:05:15;;;;;;;6.78;3.78;;;20.40;99.90;;;;;;5072881;28;20535;-65
2022/06/06 08:08:04;;;;;;;5.47;3.78;;;20.50;99.90;;;;;;5073137;28;20510;-65
2022/06/06 08:10:44;;;;;;;5.07;3.63;;;20.70;99.90;;;;;;5072618;28;20207;-65
2022/06/06 08:13:15;;;;;;;5.30;2.95;;;21.00;99.90;;;;;;5072917;28;20172;-65
2022/06/06 08:16:19;;;;;;;4.90;3.00;;;21.30;99.90;;;;;;5072760;28;20224;-64
2022/06/06 08:19:06;;;;;;;2.97;2.78;;;21.80;99.90;;;;;;5064301;28;20219;-65
2022/06/06 08:21:39;;;;;;;5.22;3.00;;;22.30;99.90;;;;;;5072617;28;20189;-65
2022/06/06 08:24:07;;;;;;;4.18;2.78;;;22.30;99.90;;;;;;5071393;28;20536;-65
2022/06/06 08:26:38;;;;;;;5.90;3.17;;;22.50;99.90;;;;;;5052749;28;20213;-65
2022/06/06 08:29:09;;;;;;;3.75;3.05;;;22.70;99.90;;;;;;5052785;28;20182;-65
2022/06/06 08:31:35;;;;;;;3.05;2.75;;;23.00;99.90;;;;;;5064776;28;20185;-64
2022/06/06 08:34:01;;;;;;;4.38;3.00;;;23.20;99.90;;;;;;5072492;28;20298;-66
2022/06/06 08:37:05;;;;;;;4.00;3.03;;;23.10;99.90;;;;;;5072314;28;20191;-67
2022/06/06 08:39:52;;;;;;;3.58;2.80;;;23.20;99.90;;;;;;5072239;28;20804;-66
2022/06/06 08:42:33;;;;;;;7.05;2.42;;;23.50;99.90;;;;;;5070919;28;20631;-64
2022/06/06 08:45:09;;;;;;;3.83;3.03;;;24.20;99.90;;;;;;5072053;28;20185;-64
2022/06/06 08:48:14;;;;;;;4.15;2.58;;;24.30;99.90;;;;;;5052287;28;20173;-65
2022/06/06 08:51:02;;;;;;;2.78;2.58;;;24.00;99.60;;;;;;5068742;28;20193;-65
2022/06/06 08:53:48;;;;;;;2.80;2.60;;;24.30;99.90;;;;;;5072087;28;20259;-64
2022/06/06 08:56:56;;;;;;;3.13;2.83;;;24.50;99.90;;;;;;5072047;28;20750;-66
2022/06/06 09:00:02;;;;;;;3.08;2.38;;;24.50;98.90;;;;;;5048640;28;20205;-65
2022/06/06 09:02:49;;;;;;;2.58;2.38;;;24.70;99.00;;;;;;5052413;28;20187;-65
2022/06/06 09:06:10;;;;;;;2.60;2.28;;;25.00;98.60;;;;;;5052115;28;20200;-65
2022/06/06 09:09:00;;;;;;;3.17;2.55;;;25.30;98.60;;;;;;5046714;28;20186;-65
2022/06/06 09:11:55;;;;;;;2.80;2.15;;;25.40;96.40;;;;;;5052148;28;20212;-65
2022/06/06 09:15:01;;;;;;;4.20;2.30;;;25.30;96.70;;;;;;5052105;28;20603;-65
2022/06/06 09:17:29;;;;;;;2.95;2.00;;;25.30;96.20;;;;;;5065886;28;20222;-65
2022/06/06 09:20:04;;;;;;;2.70;1.90;;;25.10;95.40;;;;;;5071932;28;20281;-64
2022/06/06 09:22:37;;;;;;;3.75;2.00;;;25.00;95.10;;;;;;5072055;28;20606;-64
2022/06/06 09:25:34;;;;;;;2.17;1.98;;;25.00;94.80;;;;;;5071818;28;20204;-65
2022/06/06 09:28:41;;;;;;;2.10;1.77;;;25.30;95.80;;;;;;5071980;28;20263;-65
2022/06/06 09:31:28;;;;;;;2.47;2.03;;;25.80;94.90;;;;;;5049568;28;20174;-65
2022/06/06 09:34:22;;;;;;;3.90;1.92;;;25.90;93.40;;;;;;5049634;28;20177;-65
2022/06/06 09:37:04;;;;;;;2.88;1.60;;;25.90;92.90;;;;;;5067753;28;20270;-65
2022/06/06 09:39:39;;;;;;;4.15;1.95;;;26.30;92.80;;;;;;5071933;28;20260;-65
2022/06/06 09:42:25;;;;;;;2.05;1.85;;;26.20;91.30;;;;;;5077729;28;20207;-65
2022/06/06 09:44:57;;;;;;;3.15;2.00;;;26.20;91.30;;;;;;5078481;28;20176;-65
2022/06/06 09:47:50;;;;;;;3.05;1.95;;;26.30;90.70;;;;;;5078275;28;20176;-65
2022/06/06 09:50:45;;;;;;;1.65;1.55;;;26.20;91.10;;;;;;5078430;28;20177;-65
2022/06/06 09:53:26;;;;;;;1.95;1.58;;;26.10;91.10;;;;;;5078316;28;20200;-65
2022/06/06 09:59:24;;;;;;;2.85;1.38;;;26.70;90.70;;;;;;5078141;28;20517;-65
2022/06/06 10:02:16;;;;;;;2.05;1.60;;;26.80;86.00;;;;;;5078321;28;20169;-66
2022/06/06 10:04:45;;;;;;;2.60;1.40;;;27.00;84.60;;;;;;5078014;28;20184;-66
2022/06/06 10:07:32;;;;;;;3.08;1.55;;;27.30;81.80;;;;;;5078240;28;20242;-66
2022/06/06 10:10:07;;;;;;;2.85;1.70;;;27.30;83.40;;;;;;5078161;28;20165;-65
2022/06/06 10:13:17;;;;;;;2.00;1.50;;;27.20;83.80;;;;;;5078219;28;20218;-65
2022/06/06 10:16:18;;;;;;;2.03;1.48;;;27.40;83.90;;;;;;5078076;28;20675;-66
2022/06/06 10:19:03;;;;;;;1.60;1.50;;;27.00;79.20;;;;;;5057921;28;20224;-66
2022/06/06 10:22:00;;;;;;;4.00;1.52;;;26.50;80.10;;;;;;5058138;28;20173;-66
2022/06/06 10:24:50;;;;;;;1.60;1.50;;;25.90;81.60;;;;;;5046364;28;20220;-66
2022/06/06 10:27:30;;;;;;;2.20;1.60;;;25.50;81.50;;;;;;5057982;28;20181;-66
2022/06/06 10:30:14;;;;;;;1.80;1.60;;;25.60;82.70;;;;;;5058068;28;20634;-66
2022/06/06 10:32:59;;;;;;;1.40;1.30;;;25.30;82.70;;;;;;5057783;28;20235;-66
2022/06/06 10:35:47;;;;;;;1.60;1.50;;;25.10;82.90;;;;;;5057478;28;20209;-66
2022/06/06 10:38:50;;;;;;;1.90;1.73;;;24.80;86.90;;;;;;5057754;28;20180;-66
2022/06/06 10:41:48;;;;;;;1.90;1.80;;;24.60;88.30;;;;;;5057764;28;20184;-66
2022/06/06 10:44:41;;;;;;;3.17;2.00;;;24.30;89.10;;;;;;5057992;28;20641;-66
2022/06/06 10:47:40;;;;;;;1.70;1.60;;;24.20;88.60;;;;;;5057773;28;20200;-66
2022/06/06 10:50:16;;;;;;;3.92;1.80;;;24.00;89.70;;;;;;5057730;28;20169;-65
2022/06/06 10:52:47;;;;;;;2.10;1.80;;;23.70;90.60;;;;;;5055023;28;20705;-66
2022/06/06 10:55:27;;;;;;;1.88;1.38;;;23.50;90.70;;;;;;5054534;28;20303;-65
2022/06/06 10:58:11;;;;;;;5.47;1.85;;;23.30;90.40;;;;;;5054668;28;20269;-66
2022/06/06 11:01:05;;;;;;;1.90;1.50;;;23.20;89.40;;;;;;5054549;28;20181;-66
2022/06/06 11:03:51;;;;;;;2.75;1.45;;;22.90;90.00;;;;;;5054621;28;20200;-66
2022/06/06 11:06:45;;;;;;;1.30;1.20;;;22.60;90.60;;;;;;5054545;28;20747;-66
2022/06/06 11:09:32;;;;;;;1.75;1.35;;;22.50;90.70;;;;;;5054455;28;20173;-66
2022/06/06 11:12:00;;;;;;;1.42;1.23;;;22.80;91.40;;;;;;5054427;28;20385;-66
2022/06/06 11:14:41;;;;;;;1.35;1.15;;;23.00;90.90;;;;;;5054155;28;20209;-67
2022/06/06 11:17:27;;;;;;;2.22;1.48;;;23.60;90.40;;;;;;5065077;28;20196;-65
2022/06/06 11:20:14;;;;;;;3.58;1.70;;;24.00;90.10;;;;;;5074149;28;20251;-66
2022/06/06 11:22:49;;;;;;;3.40;1.88;;;24.30;88.70;;;;;;5074272;28;20205;-65
2022/06/06 11:25:18;;;;;;;2.08;1.40;;;24.20;88.70;;;;;;5073989;28;20271;-66
2022/06/06 11:28:03;;;;;;;2.38;1.60;;;24.10;89.20;;;;;;5072726;28;20169;-66
2022/06/06 11:30:50;;;;;;;1.50;1.40;;;23.90;89.10;;;;;;5074078;28;20564;-65
2022/06/06 11:33:30;;;;;;;1.77;1.60;;;23.80;90.30;;;;;;5073825;28;20169;-66
2022/06/06 11:36:11;;;;;;;1.75;1.48;;;23.80;90.40;;;;;;5073734;28;20740;-65
2022/06/06 11:38:57;;;;;;;1.52;1.42;;;23.70;91.20;;;;;;5073828;28;20176;-64
2022/06/06 11:41:48;;;;;;;2.78;1.63;;;24.00;91.80;;;;;;5073700;28;20212;-65
2022/06/06 11:44:38;;;;;;;3.83;1.65;;;24.40;92.10;;;;;;5073804;28;20227;-65
2022/06/06 11:47:38;;;;;;;1.95;1.60;;;24.60;91.10;;;;;;5073895;28;20520;-66
2022/06/06 11:50:27;;;;;;;2.10;1.55;;;25.00;91.30;;;;;;5073478;28;20219;-65
2022/06/06 11:53:10;;;;;;;1.92;1.67;;;24.80;87.80;;;;;;5073612;28;20196;-65
2022/06/06 11:55:54;;;;;;;2.72;1.67;;;24.70;89.10;;;;;;5073534;28;20603;-65
2022/06/06 11:58:38;;;;;;;2.13;1.50;;;24.70;90.60;;;;;;5073622;28;20177;-65
2022/06/06 12:01:12;;;;;;;3.30;1.60;;;25.10;90.50;;;;;;5073193;28;20215;-65
2022/06/06 12:04:01;;;;;;;2.38;1.50;;;25.70;90.00;;;;;;5073085;28;20196;-66
2022/06/06 12:06:43;;;;;;;2.45;1.60;;;26.30;86.40;;;;;;5073418;28;20176;-66
2022/06/06 12:09:23;;;;;;;2.13;1.65;;;26.50;83.20;;;;;;5073227;28;20230;-66
2022/06/06 12:11:55;;;;;;;2.30;1.40;;;26.50;82.00;;;;;;5073249;28;20533;-65
2022/06/06 12:14:45;;;;;;;1.70;1.50;;;26.40;82.70;;;;;;5073103;28;20180;-65
2022/06/06 12:17:55;;;;;;;3.08;1.75;;;26.30;81.30;;;;;;5072938;28;20271;-65
2022/06/06 12:20:20;;;;;;;2.17;1.60;;;26.00;82.30;;;;;;5072999;28;20199;-66
2022/06/06 12:23:01;;;;;;;3.38;2.10;;;25.50;81.10;;;;;;5072960;28;20177;-64
2022/06/06 12:25:27;;;;;;;2.08;1.58;;;25.00;83.60;;;;;;5072989;28;20216;-66
2022/06/06 12:27:55;;;;;;;2.05;1.83;;;25.00;84.40;;;;;;5072807;28;20691;-65
2022/06/06 12:30:52;;;;;;;2.95;1.75;;;25.50;85.70;;;;;;5072731;28;20169;-66
2022/06/06 12:33:41;;;;;;;8.25;1.98;;;25.90;84.80;;;;;;5072726;28;20184;-66
2022/06/06 12:36:44;;;;;;;1.80;1.70;;;25.90;82.00;;;;;;5061282;28;20231;-66
2022/06/06 12:39:30;;;;;;;4.32;2.40;;;26.00;83.50;;;;;;5072976;28;20636;-66
2022/06/06 12:42:05;;;;;;;4.07;2.17;;;26.00;84.10;;;;;;5072811;28;20705;-66
2022/06/06 12:44:40;;;;;;;2.35;2.10;;;26.00;84.80;;;;;;5072863;28;20180;-66
2022/06/06 12:47:15;;;;;;;2.30;1.80;;;26.10;84.50;;;;;;5072668;28;20169;-66
2022/06/06 12:50:03;;;;;;;4.80;2.10;;;26.20;85.70;;;;;;5072782;28;20177;-66
2022/06/06 12:52:48;;;;;;;4.57;1.98;;;26.20;84.00;;;;;;5072813;28;20222;-66
2022/06/06 12:57:55;;;;;;;2.35;1.60;;;25.90;82.80;;;;;;5072751;28;20643;-66
2022/06/06 13:01:37;;;;;;;2.10;1.90;;;25.80;84.70;;;;;;5072578;28;20179;-66
2022/06/06 13:03:29;;;;;;;1.75;1.60;;;25.60;84.70;;;;;;5072265;28;20180;-65
2022/06/06 13:06:01;;;;;;;1.70;1.60;;;25.40;85.80;;;;;;5072418;28;20299;-65
2022/06/06 13:08:52;;;;;;;4.00;1.50;;;25.40;86.20;;;;;;5072572;28;20176;-65
2022/06/06 13:11:35;;;;;;;1.80;1.60;;;25.30;85.60;;;;;;5072347;28;20169;-65
2022/06/06 13:14:13;;;;;;;2.90;1.80;;;25.10;85.60;;;;;;5072313;28;20177;-65
2022/06/06 13:16:56;;;;;;;3.83;1.80;;;25.00;86.20;;;;;;5071686;28;20238;-65
2022/06/06 13:19:40;;;;;;;4.47;2.00;;;25.00;88.00;;;;;;5072020;28;20224;-65
2022/06/06 13:22:19;;;;;;;3.58;2.00;;;25.00;88.60;;;;;;5072289;28;20183;-65
2022/06/06 13:25:12;;;;;;;2.17;2.00;;;25.10;90.00;;;;;;5072155;28;20298;-65
2022/06/06 13:27:56;;;;;;;2.33;2.13;;;25.00;86.20;;;;;;5072298;28;20524;-65
2022/06/06 13:30:23;;;;;;;3.08;1.98;;;24.70;87.80;;;;;;5072158;28;20172;-65
2022/06/06 13:33:27;;;;;;;3.25;1.90;;;24.50;90.00;;;;;;5072091;28;20173;-65
2022/06/06 13:35:53;;;;;;;4.20;1.75;;;24.30;90.40;;;;;;5072073;28;20216;-65
2022/06/06 13:38:34;;;;;;;2.08;1.80;;;24.10;90.60;;;;;;5072073;28;20261;-65
2022/06/06 13:41:36;;;;;;;2.70;2.20;;;23.90;90.40;;;;;;5072073;28;20183;-65
2022/06/06 13:44:47;;;;;;;1.80;1.70;;;23.80;91.20;;;;;;5071936;28;20176;-64
2022/06/06 13:47:26;;;;;;;2.03;1.90;;;23.80;91.30;;;;;;5054627;28;20280;-65
2022/06/06 13:50:06;;;;;;;2.78;2.08;;;23.90;91.30;;;;;;5072076;28;20186;-65
2022/06/06 13:52:58;;;;;;;4.65;2.40;;;23.90;91.30;;;;;;5072167;28;20181;-65
2022/06/06 13:55:37;;;;;;;2.22;2.03;;;24.00;91.40;;;;;;5071817;28;20208;-65
2022/06/06 13:58:12;;;;;;;3.47;2.17;;;24.00;90.70;;;;;;5071760;28;20210;-65
2022/06/06 14:01:00;;;;;;;5.15;1.92;;;23.90;90.50;;;;;;5071970;28;20172;-64
2022/06/06 14:03:37;;;;;;;4.70;2.03;;;23.70;91.20;;;;;;5071776;28;20624;-64
2022/06/06 14:06:14;;;;;;;3.80;2.03;;;23.40;91.70;;;;;;5071773;28;20190;-65
2022/06/06 14:08:56;;;;;;;4.28;2.00;;;23.20;91.60;;;;;;5071913;28;20173;-65
2022/06/06 14:11:33;;;;;;;5.15;1.80;;;23.00;91.90;;;;;;5071892;28;20180;-65
2022/06/06 14:14:00;;;;;;;2.28;1.90;;;22.90;92.80;;;;;;5071607;28;20177;-65
2022/06/06 14:16:48;;;;;;;2.65;2.10;;;22.80;92.40;;;;;;5071677;28;20212;-65
2022/06/06 14:19:22;;;;;;;6.55;1.90;;;22.70;92.30;;;;;;5071602;28;20220;-65